createdAt,value
2019-02-09T00:02:25.767Z,1.40
2019-02-09T00:06:08.238Z,1.17
2019-02-09T00:09:33.802Z,1.30
2019-02-09T00:13:03.225Z,1.22
2019-02-09T00:16:29.714Z,1.17
2019-02-09T00:20:00.232Z,1.62
2019-02-09T00:23:31.943Z,1.75
2019-02-09T00:27:01.867Z,1.62
2019-02-09T00:30:32.041Z,1.82
2019-02-09T00:34:01.195Z,1.70
2019-02-09T00:37:30.856Z,1.22
2019-02-09T00:41:08.207Z,1.82
2019-02-09T00:44:38.121Z,1.75
2019-02-09T00:48:11.374Z,1.60
2019-02-09T00:51:41.033Z,1.82
2019-02-09T00:55:11.217Z,2.08
2019-02-09T00:58:40.617Z,1.75
2019-02-09T01:02:10.281Z,1.80
2019-02-09T01:05:36.103Z,2.25
2019-02-09T01:09:05.772Z,1.82
2019-02-09T01:12:35.437Z,1.55
2019-02-09T01:16:04.586Z,1.65
2019-02-09T01:19:36.561Z,1.62
2019-02-09T01:23:06.022Z,1.30
2019-02-09T01:26:36.395Z,2.47
2019-02-09T01:30:06.320Z,2.42
2019-02-09T01:33:36.233Z,1.55
2019-02-09T01:37:05.653Z,1.92
2019-02-09T01:40:36.331Z,2.08
2019-02-09T01:44:06.000Z,1.35
2019-02-09T01:47:35.663Z,1.22
2019-02-09T01:51:05.855Z,1.92
2019-02-09T01:54:35.760Z,1.77
2019-02-09T01:58:00.563Z,2.25
2019-02-09T02:01:29.965Z,2.45
2019-02-09T02:04:59.368Z,1.37
2019-02-09T02:08:29.550Z,2.83
2019-02-09T02:11:59.209Z,1.80
2019-02-09T02:15:29.901Z,1.55
2019-02-09T02:19:00.328Z,1.90
2019-02-09T02:22:30.509Z,2.00
2019-02-09T02:26:00.935Z,2.77
2019-02-09T02:29:30.865Z,2.05
2019-02-09T02:33:00.777Z,1.40
2019-02-09T02:36:29.937Z,1.30
2019-02-09T02:40:01.646Z,2.10
2019-02-09T02:43:32.328Z,2.62
2019-02-09T02:47:02.253Z,2.47
2019-02-09T02:50:32.682Z,1.80
2019-02-09T02:54:02.091Z,2.00
2019-02-09T02:57:32.009Z,1.62
2019-02-09T03:01:01.676Z,1.60
2019-02-09T03:04:32.365Z,2.20
2019-02-09T03:07:58.189Z,1.75
2019-02-09T03:11:27.850Z,2.17
2019-02-09T03:14:59.053Z,2.12
2019-02-09T03:18:31.785Z,2.17
2019-02-09T03:22:01.707Z,1.90
2019-02-09T03:25:32.392Z,1.62
2019-02-09T03:29:01.802Z,1.62
2019-02-09T03:32:31.209Z,2.08
2019-02-09T03:36:00.878Z,2.45
2019-02-09T03:39:31.817Z,1.67
2019-02-09T03:43:01.737Z,1.67
2019-02-09T03:46:31.149Z,1.95
2019-02-09T03:50:00.562Z,2.40
2019-02-09T03:53:30.730Z,2.02
2019-02-09T03:57:00.141Z,1.40
2019-02-09T04:00:32.618Z,2.30
2019-02-09T04:04:03.311Z,2.87
2019-02-09T04:07:30.411Z,1.77
2019-02-09T04:11:03.410Z,2.15
2019-02-09T04:14:33.066Z,2.05
2019-02-09T04:18:02.215Z,2.05
2019-02-09T04:21:31.882Z,1.22
2019-02-09T04:25:01.806Z,1.82
2019-02-09T04:28:31.214Z,2.15
2019-02-09T04:32:00.875Z,2.37
2019-02-09T04:35:26.714Z,2.25
2019-02-09T04:38:55.876Z,2.95
2019-02-09T04:42:39.081Z,1.87
2019-02-09T04:46:11.562Z,3.08
2019-02-09T04:49:41.224Z,2.00
2019-02-09T04:53:19.335Z,1.65
2019-02-09T04:56:48.491Z,2.25
2019-02-09T05:00:18.664Z,2.65
2019-02-09T05:03:48.072Z,3.52
2019-02-09T05:07:24.907Z,2.37
2019-02-09T05:10:56.362Z,2.98
2019-02-09T05:14:25.768Z,3.75
2019-02-09T05:17:51.849Z,2.25
2019-02-09T05:21:22.543Z,2.80
2019-02-09T05:24:53.482Z,2.08
2019-02-09T05:28:23.910Z,2.10
2019-02-09T05:31:53.578Z,2.67
2019-02-09T05:35:24.053Z,2.37
2019-02-09T05:38:56.491Z,3.05
2019-02-09T05:42:26.921Z,2.75
2019-02-09T05:45:56.329Z,2.95
2019-02-09T05:49:25.480Z,2.35
2019-02-09T05:52:54.889Z,2.05
2019-02-09T05:56:24.552Z,2.27
2019-02-09T05:59:53.962Z,2.42
2019-02-09T06:03:24.390Z,2.10
2019-02-09T06:06:54.062Z,2.83
2019-02-09T06:10:23.721Z,2.75
2019-02-09T06:14:01.320Z,1.75
2019-02-09T06:17:30.728Z,3.05
2019-02-09T06:21:00.135Z,2.30
2019-02-09T06:24:25.704Z,2.70
2019-02-09T06:27:55.120Z,1.98
2019-02-09T06:31:24.776Z,3.35
2019-02-09T06:34:55.471Z,2.37
2019-02-09T06:38:25.386Z,2.87
2019-02-09T06:41:54.794Z,3.05
2019-02-09T06:45:24.459Z,2.70
2019-02-09T06:48:53.611Z,2.75
2019-02-09T06:52:21.738Z,2.22
2019-02-09T06:55:51.401Z,2.55
2019-02-09T06:59:20.808Z,3.47
2019-02-09T07:02:50.729Z,1.90
2019-02-09T07:06:20.138Z,1.72
2019-02-09T07:10:01.080Z,2.12
2019-02-09T07:13:30.984Z,2.25
2019-02-09T07:17:00.142Z,2.10
2019-02-09T07:20:29.171Z,2.42
2019-02-09T07:23:56.391Z,1.40
2019-02-09T07:27:25.544Z,2.35
2019-02-09T07:30:55.465Z,2.20
2019-02-09T07:38:00.678Z,1.90
2019-02-09T07:40:54.763Z,1.65
2019-02-09T07:44:24.172Z,2.42
2019-02-09T07:47:54.087Z,2.22
2019-02-09T07:51:23.750Z,2.60
2019-02-09T07:54:49.577Z,2.77
2019-02-09T07:58:19.494Z,2.35
2019-02-09T08:01:48.903Z,2.20
2019-02-09T08:04:41.966Z,2.67
2019-02-09T08:07:35.785Z,2.40
2019-02-09T08:10:29.354Z,2.33
2019-02-09T08:13:22.664Z,2.15
2019-02-09T08:16:16.494Z,3.02
2019-02-09T08:19:09.545Z,2.15
2019-02-09T08:22:02.404Z,3.10
2019-02-09T08:24:55.400Z,2.27
2019-02-09T08:27:48.973Z,3.15
2019-02-09T08:30:44.336Z,2.80
2019-02-09T08:33:37.383Z,1.77
2019-02-09T08:36:29.709Z,2.47
2019-02-09T08:39:19.400Z,2.65
2019-02-09T08:42:12.200Z,3.92
2019-02-09T08:45:01.656Z,2.40
2019-02-09T08:47:54.733Z,2.45
2019-02-09T08:50:49.071Z,2.08
2019-02-09T08:53:39.304Z,2.90
2019-02-09T08:56:34.411Z,2.12
2019-02-09T08:59:27.720Z,2.52
2019-02-09T09:02:22.061Z,2.60
2019-02-09T09:05:15.883Z,3.12
2019-02-09T09:08:09.706Z,2.85
2019-02-09T09:11:03.273Z,1.87
2019-02-09T09:13:57.098Z,2.22
2019-02-09T09:16:50.163Z,2.55
2019-02-09T09:19:44.235Z,2.02
2019-02-09T09:22:37.296Z,2.85
2019-02-09T09:25:30.345Z,2.85
2019-02-09T09:28:19.562Z,2.50
2019-02-09T09:31:12.621Z,2.50
2019-02-09T09:34:05.672Z,3.02
2019-02-09T09:36:58.730Z,1.67
2019-02-09T09:39:51.784Z,2.12
2019-02-09T09:42:44.586Z,2.87
2019-02-09T09:45:38.664Z,2.40
2019-02-09T09:48:32.489Z,2.62
2019-02-09T09:51:32.966Z,1.85
2019-02-09T09:54:25.767Z,2.27
2019-02-09T09:57:18.823Z,3.22
2019-02-09T10:00:11.878Z,1.77
2019-02-09T10:03:04.707Z,1.90
2019-02-09T10:05:57.480Z,2.75
2019-02-09T10:08:46.439Z,2.22
2019-02-09T10:11:39.496Z,2.67
2019-02-09T10:14:32.553Z,2.02
2019-02-09T10:17:25.609Z,3.40
2019-02-09T10:20:18.406Z,1.20
2019-02-09T10:23:11.466Z,2.15
2019-02-09T10:26:12.202Z,2.33
2019-02-09T10:29:05.265Z,2.40
2019-02-09T10:31:59.853Z,2.12
2019-02-09T10:34:48.808Z,2.37
2019-02-09T10:37:41.608Z,1.87
2019-02-09T10:40:35.944Z,2.02
2019-02-09T10:43:28.487Z,2.17
2019-02-09T10:46:18.729Z,1.98
2019-02-09T10:49:12.039Z,2.17
2019-02-09T10:52:06.121Z,1.67
2019-02-09T10:55:11.464Z,2.12
2019-02-09T10:58:05.033Z,1.65
2019-02-09T11:01:05.517Z,1.65
2019-02-09T11:03:54.734Z,2.27
2019-02-09T11:06:47.799Z,1.82
2019-02-09T11:09:44.166Z,1.40
2019-02-09T11:12:39.018Z,2.12
2019-02-09T11:15:32.841Z,2.10
2019-02-09T11:18:26.664Z,1.77
2019-02-09T11:21:19.731Z,1.77
2019-02-09T11:24:12.525Z,2.10
2019-02-09T11:27:05.577Z,1.92
2019-02-09T11:29:53.198Z,1.85
2019-02-09T11:32:48.619Z,2.10
2019-02-09T11:35:41.673Z,1.50
2019-02-09T11:38:34.988Z,1.40
2019-02-09T11:41:28.555Z,2.27
2019-02-09T11:44:15.726Z,2.10
2019-02-09T11:47:09.038Z,1.70
2019-02-09T11:50:02.367Z,1.57
2019-02-09T11:52:55.402Z,1.67
2019-02-09T11:55:48.713Z,2.37
2019-02-09T11:58:41.773Z,2.00
2019-02-09T12:01:37.647Z,2.40
2019-02-09T12:04:30.699Z,2.80
2019-02-09T12:07:20.436Z,1.55
2019-02-09T12:10:22.187Z,2.52
2019-02-09T12:13:11.157Z,1.90
2019-02-09T12:16:04.458Z,1.62
2019-02-09T12:18:58.535Z,1.35
2019-02-09T12:21:51.851Z,2.02
2019-02-09T12:24:45.927Z,2.05
2019-02-09T12:28:39.406Z,1.55
2019-02-09T12:31:32.711Z,3.27
2019-02-09T12:34:26.026Z,4.70
2019-02-09T12:37:16.268Z,2.85
2019-02-09T12:40:09.580Z,2.25
2019-02-09T12:43:02.637Z,1.90
2019-02-09T12:45:55.947Z,2.42
2019-02-09T12:48:49.016Z,2.00
2019-02-09T12:51:42.062Z,2.33
2019-02-09T12:54:35.626Z,1.95
2019-02-09T12:57:28.680Z,2.10
2019-02-09T13:00:22.761Z,1.90
2019-02-09T13:03:15.818Z,2.75
2019-02-09T13:06:08.871Z,1.92
2019-02-09T13:09:02.955Z,2.62
2019-02-09T13:11:56.015Z,2.67
2019-02-09T13:14:49.069Z,2.30
2019-02-09T13:17:42.121Z,3.22
2019-02-09T13:20:34.051Z,2.72
2019-02-09T13:23:35.147Z,3.70
2019-02-09T13:26:36.143Z,2.50
2019-02-09T13:29:37.129Z,2.20
2019-02-09T13:32:30.189Z,2.80
2019-02-09T13:35:23.503Z,2.90
2019-02-09T13:38:16.813Z,1.60
2019-02-09T13:41:09.866Z,1.40
2019-02-09T13:44:03.442Z,3.02
2019-02-09T13:46:56.492Z,2.50
2019-02-09T13:49:49.548Z,2.47
2019-02-09T13:52:50.292Z,1.35
2019-02-09T13:55:43.852Z,2.27
2019-02-09T13:58:37.165Z,1.70
2019-02-09T14:01:26.634Z,2.92
2019-02-09T14:04:19.945Z,1.72
2019-02-09T14:07:21.207Z,2.30
2019-02-09T14:10:14.505Z,2.27
2019-02-09T14:13:14.179Z,2.02
2019-02-09T14:16:08.061Z,2.40
2019-02-09T14:18:53.931Z,1.35
2019-02-09T14:21:48.053Z,2.67
2019-02-09T14:24:41.067Z,2.27
2019-02-09T14:27:34.890Z,3.22
2019-02-09T14:30:28.973Z,2.70
2019-02-09T14:33:23.061Z,2.95
2019-02-09T14:36:16.934Z,1.77
2019-02-09T14:39:10.961Z,2.22
2019-02-09T14:42:05.290Z,1.98
2019-02-09T14:45:10.634Z,2.65
2019-02-09T14:48:03.948Z,2.27
2019-02-09T14:50:57.270Z,2.72
2019-02-09T14:53:50.316Z,2.15
2019-02-09T14:56:43.373Z,2.65
2019-02-09T14:59:36.189Z,2.47
2019-02-09T15:02:29.234Z,2.33
2019-02-09T15:05:22.282Z,2.50
2019-02-09T15:08:19.174Z,2.15
2019-02-09T15:11:12.233Z,2.62
2019-02-09T15:14:06.056Z,2.60
2019-02-09T15:17:05.706Z,2.50
2019-02-09T15:20:03.688Z,2.45
2019-02-09T15:22:56.524Z,2.27
2019-02-09T15:25:49.543Z,2.40
2019-02-09T15:28:43.000Z,2.95
2019-02-09T15:31:35.659Z,3.08
2019-02-09T15:34:28.457Z,2.67
2019-02-09T15:37:21.772Z,2.62
2019-02-09T15:40:14.827Z,2.75
2019-02-09T15:43:04.042Z,4.03
2019-02-09T15:45:58.123Z,2.77
2019-02-09T15:48:50.921Z,2.50
2019-02-09T15:51:44.490Z,2.52
2019-02-09T15:54:45.480Z,2.62
2019-02-09T15:57:38.282Z,2.40
2019-02-09T16:00:33.643Z,2.15
2019-02-09T16:03:26.457Z,2.22
2019-02-09T16:06:28.201Z,2.50
2019-02-09T16:09:23.307Z,3.70
2019-02-09T16:12:16.360Z,2.40
2019-02-09T16:15:09.161Z,3.00
2019-02-09T16:18:02.730Z,1.80
2019-02-09T16:20:55.531Z,2.15
2019-02-09T16:23:45.768Z,2.85
2019-02-09T16:26:38.570Z,2.35
2019-02-09T16:29:35.216Z,2.75
2019-02-09T16:32:28.271Z,3.40
2019-02-09T16:35:21.320Z,3.30
2019-02-09T16:38:15.145Z,2.75
2019-02-09T16:41:07.945Z,3.37
2019-02-09T16:44:00.749Z,2.52
2019-02-09T16:46:53.808Z,3.15
2019-02-09T16:49:46.859Z,2.92
2019-02-09T16:52:39.916Z,2.90
2019-02-09T16:55:29.382Z,1.92
2019-02-09T16:58:22.695Z,2.25
2019-02-09T17:01:10.056Z,2.98
2019-02-09T17:04:04.201Z,2.60
2019-02-09T17:06:57.516Z,3.65
2019-02-09T17:09:50.312Z,2.77
2019-02-09T17:12:43.375Z,3.52
2019-02-09T17:15:38.225Z,3.33
2019-02-09T17:18:31.553Z,7.03
2019-02-09T17:21:24.327Z,3.55
2019-02-09T17:24:17.391Z,5.62
2019-02-09T17:27:10.187Z,4.08
2019-02-09T17:30:03.247Z,7.50
2019-02-09T17:32:56.553Z,3.75
2019-02-09T17:35:45.773Z,3.08
2019-02-09T17:38:38.832Z,4.22
2019-02-09T17:41:28.041Z,2.22
2019-02-09T17:44:21.352Z,3.05
2019-02-09T17:47:14.408Z,2.70
2019-02-09T17:50:07.210Z,1.98
2019-02-09T17:53:01.290Z,2.72
2019-02-09T17:55:54.102Z,2.80
2019-02-09T17:58:46.378Z,3.15
2019-02-09T18:01:39.432Z,4.47
2019-02-09T18:04:33.512Z,5.08
2019-02-09T18:07:28.992Z,5.72
2019-02-09T18:10:19.879Z,5.95
2019-02-09T18:13:13.195Z,5.30
2019-02-09T18:16:01.442Z,15.72
2019-02-09T18:18:54.699Z,5.62
2019-02-09T18:21:43.657Z,9.08
2019-02-09T18:24:36.713Z,5.55
2019-02-09T18:27:29.769Z,5.03
2019-02-09T18:30:18.728Z,5.97
2019-02-09T18:33:11.792Z,5.37
2019-02-09T18:36:04.842Z,6.00
2019-02-09T18:38:57.897Z,3.58
2019-02-09T18:41:50.701Z,4.65
2019-02-09T18:44:44.011Z,6.53
2019-02-09T18:47:37.323Z,5.42
2019-02-09T18:50:34.488Z,6.28
2019-02-09T18:53:27.537Z,6.30
2019-02-09T18:56:17.769Z,4.58
2019-02-09T18:59:10.827Z,5.92
2019-02-09T19:02:03.625Z,3.35
2019-02-09T19:05:04.155Z,3.95
2019-02-09T19:07:50.506Z,4.58
2019-02-09T19:10:44.594Z,6.30
2019-02-09T19:13:37.642Z,4.45
2019-02-09T19:16:30.443Z,5.17
2019-02-09T19:19:19.657Z,5.70
2019-02-09T19:22:20.152Z,5.33
2019-02-09T19:25:06.282Z,4.08
2019-02-09T19:27:59.340Z,4.85
2019-02-09T19:30:52.138Z,4.65
2019-02-09T19:33:41.387Z,3.30
2019-02-09T19:36:34.664Z,3.92
2019-02-09T19:39:29.258Z,3.80
2019-02-09T19:42:22.322Z,4.22
2019-02-09T19:45:15.121Z,3.92
2019-02-09T19:48:04.072Z,4.45
2019-02-09T19:50:59.949Z,4.28
2019-02-09T19:53:59.911Z,3.45
2019-02-09T19:56:52.972Z,4.05
2019-02-09T19:59:46.030Z,3.75
2019-02-09T20:02:50.344Z,2.45
2019-02-09T20:05:43.913Z,3.83
2019-02-09T20:08:36.716Z,4.22
2019-02-09T20:11:29.772Z,4.87
2019-02-09T20:14:20.008Z,3.52
2019-02-09T20:17:13.329Z,4.22
2019-02-09T20:20:07.911Z,4.42
2019-02-09T20:23:00.969Z,4.58
2019-02-09T20:25:50.696Z,3.62
2019-02-09T20:28:43.495Z,3.95
2019-02-09T20:31:36.556Z,4.08
2019-02-09T20:34:29.354Z,7.25
2019-02-09T20:37:22.410Z,4.45
2019-02-09T20:40:15.466Z,4.90
2019-02-09T20:43:11.849Z,4.40
2019-02-09T20:46:04.904Z,3.98
2019-02-09T20:48:57.960Z,4.70
2019-02-09T20:51:50.764Z,4.45
2019-02-09T20:54:44.844Z,5.05
2019-02-09T20:57:37.648Z,8.78
2019-02-09T21:00:34.792Z,4.10
2019-02-09T21:03:28.105Z,3.45
2019-02-09T21:06:21.163Z,3.62
2019-02-09T21:09:17.809Z,3.40
2019-02-09T21:12:08.323Z,2.98
2019-02-09T21:15:02.639Z,4.15
2019-02-09T21:17:55.946Z,4.75
2019-02-09T21:20:49.000Z,5.97
2019-02-09T21:23:42.055Z,6.12
2019-02-09T21:26:34.855Z,4.90
2019-02-09T21:29:29.521Z,7.03
2019-02-09T21:32:20.969Z,4.90
2019-02-09T21:35:15.309Z,4.67
2019-02-09T21:38:08.107Z,4.20
2019-02-09T21:41:00.910Z,5.37
2019-02-09T21:43:53.960Z,4.90
2019-02-09T21:46:49.071Z,5.00
2019-02-09T21:49:42.129Z,4.83
2019-02-09T21:52:42.347Z,4.10
2019-02-09T21:55:35.400Z,3.92
2019-02-09T21:58:28.714Z,5.00
2019-02-09T22:01:21.511Z,3.52
2019-02-09T22:04:14.824Z,3.42
2019-02-09T22:07:07.629Z,3.60
2019-02-09T22:10:00.940Z,3.20
2019-02-09T22:12:53.768Z,2.83
2019-02-09T22:15:47.306Z,3.65
2019-02-09T22:18:40.278Z,2.33
2019-02-09T22:21:43.113Z,1.62
2019-02-09T22:24:45.439Z,3.55
2019-02-09T22:27:47.944Z,2.40
2019-02-09T22:30:51.889Z,2.10
2019-02-09T22:33:55.326Z,2.77
2019-02-09T22:36:57.831Z,2.83
2019-02-09T22:40:02.656Z,3.00
2019-02-09T22:43:04.682Z,3.20
2019-02-09T22:46:07.208Z,2.75
2019-02-09T22:49:09.735Z,1.87
2019-02-09T22:52:12.261Z,2.80
2019-02-09T22:55:15.816Z,2.27
2019-02-09T22:58:19.113Z,2.30
2019-02-09T23:01:35.974Z,2.20
2019-02-09T23:04:52.847Z,2.27
2019-02-09T23:08:05.102Z,1.25
2019-02-09T23:11:07.881Z,2.83
2019-02-09T23:14:10.662Z,1.90
2019-02-09T23:17:13.958Z,2.72
2019-02-09T23:20:17.511Z,1.98
2019-02-09T23:23:21.069Z,2.70
2019-02-09T23:26:20.069Z,2.60
2019-02-09T23:29:23.047Z,2.22
2019-02-09T23:32:22.246Z,1.90
2019-02-09T23:35:17.503Z,2.27
2019-02-09T23:38:20.134Z,2.45
2019-02-09T23:41:25.737Z,2.27
2019-02-09T23:44:28.261Z,1.60
2019-02-09T23:47:26.183Z,1.87
2019-02-09T23:50:29.224Z,2.15
2019-02-09T23:53:34.056Z,2.12
2019-02-09T23:56:37.865Z,1.90
2019-02-09T23:59:40.905Z,2.12
